This is the latest recevied weather packets stored in our database for station/object KD5UIG. If no packets are shown the sender has not sent any weather packets the latest 10 day(s).
| Time | Temp. | Humidity | Pressure | Rain* | Wind** | Luminosity | Snow |
|---|---|---|---|---|---|---|---|
| 1777463756 | 15° C | 76% | 1015.1 hPa | 0 mm | - | 0 W/m² | - |
| 1777457155 | 16.11° C | 75% | 1014.5 hPa | 0 mm | - | 0 W/m² | - |
| 1777456863 | 16.11° C | 75% | 1014.4 hPa | 0 mm | - | 0 W/m² | - |
| 1777452656 | 17.22° C | 77% | 1014 hPa | 0 mm | - | 0 W/m² | - |
| 1777451755 | 17.22° C | 76% | 1013.4 hPa | 0 mm | - | 0 W/m² | - |
| 1777449355 | 17.78° C | 78% | 1013.4 hPa | 0 mm | - | 0 W/m² | - |
| 1777448455 | 17.78° C | 79% | 1013.1 hPa | 0 mm | - | 0 W/m² | - |
| 1777447853 | 17.78° C | 79% | 1013 hPa | 0 mm | - | 0 W/m² | - |
| 1777447556 | 18.33° C | 79% | 1013.3 hPa | 0 mm | - | 0 W/m² | - |
| 1777446356 | 18.33° C | 79% | 1013.8 hPa | 0 mm | - | 0 W/m² | - |
| 1777443956 | 18.89° C | 78% | 1014 hPa | 0 mm | - | 0 W/m² | - |
| 1777442156 | 18.89° C | 78% | 1014 hPa | 0 mm | - | 0 W/m² | - |
| 1777438560 | 20.56° C | 79% | 1013.5 hPa | 0 mm | - | 0 W/m² | - |
| 1777436456 | 21.11° C | 82% | 1013.3 hPa | 0 mm | - | 0 W/m² | - |
| 1777434354 | 21.67° C | 82% | 1013.2 hPa | 0 mm | - | 0 W/m² | - |
| 1777430156 | 22.78° C | 79% | 1011.4 hPa | 0 mm | - | 0 W/m² | - |
| 1777426856 | 23.33° C | 78% | 1010.3 hPa | 0 mm | - | 0 W/m² | - |
| 1777426261 | 23.33° C | 77% | 1010.1 hPa | 0 mm | - | 0 W/m² | - |
| 1777425655 | 23.89° C | 77% | 1010.1 hPa | 0 mm | - | 0 W/m² | - |
| 1777424456 | 24.44° C | 76% | 1010.1 hPa | 0 mm | - | 0 W/m² | - |
| 1777424155 | 24.44° C | 75% | 1010.1 hPa | 0 mm | - | 7 W/m² | - |
| 1777421768 | 26.67° C | 76% | 1009.5 hPa | 0 mm | - | 56 W/m² | - |
| 1777419657 | 26.11° C | 82% | 1008.3 hPa | 0 mm | - | 172 W/m² | - |
| 1777418156 | 25° C | 81% | 1007.7 hPa | 0.25 mm | - | 250 W/m² | - |
| 1777415157 | 25.56° C | 86% | 1009.3 hPa | 1.78 mm | - | 62 W/m² | - |
* Rain latest hour (hover to see other rain measurements)
** Current wind speed in m/s (hover to see current wind gust speed)